Time;durP1;ratioP1;P1;durP2;ratioP2;P2;SDS_P1;SDS_P2;PMS_P1;PMS_P2;Temp;Humidity;BMP_temperature;BMP_pressure;BME280_temperature;BME280_humidity;BME280_pressure;Samples;Min_cycle;Max_cycle;Signal;HPM_P1;HPM_P2
2021/10/19 00:02:08;;;;;;;5.23;4.00;;;13.10;99.90;;;;;;4910826;29;20478;-81
2021/10/19 00:04:36;;;;;;;8.67;5.47;;;13.20;99.90;;;;;;4914463;29;20494;-80
2021/10/19 00:07:05;;;;;;;8.77;5.83;;;13.10;99.90;;;;;;4913552;29;21060;-81
2021/10/19 00:09:33;;;;;;;6.10;4.70;;;13.10;99.90;;;;;;4912367;29;20521;-81
2021/10/19 00:12:01;;;;;;;8.17;5.00;;;13.10;99.90;;;;;;4929410;29;20462;-81
2021/10/19 00:14:29;;;;;;;5.33;4.83;;;13.10;99.90;;;;;;4914836;29;20458;-81
2021/10/19 00:16:59;;;;;;;8.57;5.20;;;13.00;99.90;;;;;;4913291;29;21093;-82
2021/10/19 00:19:27;;;;;;;6.50;5.27;;;13.00;99.90;;;;;;4909723;29;20465;-82
2021/10/19 00:22:01;;;;;;;5.77;4.07;;;13.00;99.90;;;;;;4915781;29;20464;-83
2021/10/19 00:24:29;;;;;;;6.67;4.40;;;13.00;99.90;;;;;;4917846;29;20457;-81
2021/10/19 00:26:58;;;;;;;7.63;4.40;;;13.00;99.90;;;;;;4920648;29;20473;-80
2021/10/19 00:29:26;;;;;;;8.10;5.10;;;13.00;99.90;;;;;;4913782;29;20459;-80
2021/10/19 00:31:54;;;;;;;7.67;5.00;;;13.00;99.90;;;;;;4907935;29;20558;-80
2021/10/19 00:34:24;;;;;;;5.23;4.70;;;13.00;99.90;;;;;;4915053;29;20488;-80
2021/10/19 00:36:52;;;;;;;5.43;4.93;;;13.10;99.90;;;;;;4915809;29;20481;-80
2021/10/19 00:39:20;;;;;;;6.67;4.50;;;13.10;99.90;;;;;;4915531;29;20812;-80
2021/10/19 00:41:49;;;;;;;8.00;5.40;;;13.00;99.90;;;;;;4915227;29;20459;-81
2021/10/19 00:44:17;;;;;;;6.90;5.00;;;13.00;99.90;;;;;;4915141;29;20458;-82
2021/10/19 00:46:45;;;;;;;7.07;4.63;;;13.10;99.90;;;;;;4926617;29;20484;-81
2021/10/19 00:49:13;;;;;;;5.07;4.13;;;13.20;99.90;;;;;;4921266;29;20530;-80
2021/10/19 00:51:43;;;;;;;6.43;4.50;;;13.20;99.90;;;;;;4918011;29;20934;-81
2021/10/19 00:54:11;;;;;;;4.40;3.33;;;13.20;99.90;;;;;;4931158;29;20458;-80
2021/10/19 00:56:40;;;;;;;4.70;3.53;;;13.20;99.90;;;;;;4928788;29;20476;-81
2021/10/19 00:59:10;;;;;;;6.20;3.73;;;13.30;99.90;;;;;;4917569;29;20458;-80
2021/10/19 01:01:38;;;;;;;4.17;3.40;;;13.30;99.90;;;;;;4917572;29;20833;-81
2021/10/19 01:04:06;;;;;;;5.10;3.30;;;13.30;99.90;;;;;;4912334;29;20494;-80
2021/10/19 01:06:34;;;;;;;6.07;4.07;;;13.40;99.90;;;;;;4920308;29;20485;-81
2021/10/19 01:09:04;;;;;;;3.73;3.43;;;13.30;99.90;;;;;;4917165;29;20458;-81
2021/10/19 01:11:33;;;;;;;6.10;4.47;;;13.30;99.90;;;;;;4924191;29;20668;-80
2021/10/19 01:14:01;;;;;;;5.93;4.63;;;13.30;99.90;;;;;;4917764;29;20466;-81
2021/10/19 01:16:29;;;;;;;4.97;3.60;;;13.30;99.90;;;;;;4915166;29;20455;-81
2021/10/19 01:18:58;;;;;;;6.97;4.27;;;13.30;99.90;;;;;;4917815;29;20499;-81
2021/10/19 01:21:28;;;;;;;6.83;4.00;;;13.20;99.90;;;;;;4915595;29;20466;-80
2021/10/19 01:23:56;;;;;;;4.47;3.90;;;13.30;99.90;;;;;;4914444;29;20477;-80
2021/10/19 01:26:24;;;;;;;4.30;3.73;;;13.40;99.90;;;;;;4907173;29;20485;-81
2021/10/19 01:28:52;;;;;;;8.07;4.00;;;13.40;99.90;;;;;;4921969;29;20781;-80
2021/10/19 01:31:21;;;;;;;4.97;3.57;;;13.20;99.90;;;;;;4924811;29;20954;-80
2021/10/19 01:33:49;;;;;;;4.40;3.90;;;13.10;99.90;;;;;;4918316;29;20456;-82
2021/10/19 01:36:17;;;;;;;3.90;3.33;;;13.10;99.90;;;;;;4915063;29;20475;-80
2021/10/19 01:38:46;;;;;;;4.50;4.10;;;13.30;99.90;;;;;;4915255;29;20463;-81
2021/10/19 01:41:14;;;;;;;8.50;4.00;;;13.40;99.90;;;;;;4911076;29;20854;-82
2021/10/19 01:43:42;;;;;;;5.50;4.60;;;13.40;99.90;;;;;;4914134;29;20458;-82
2021/10/19 01:46:11;;;;;;;4.43;3.83;;;13.40;99.90;;;;;;4909285;29;20482;-80
2021/10/19 01:48:40;;;;;;;4.03;3.60;;;13.40;99.90;;;;;;4912704;29;20458;-81
2021/10/19 01:51:08;;;;;;;4.53;3.90;;;13.40;99.90;;;;;;4916058;29;20462;-82
2021/10/19 01:53:36;;;;;;;4.03;3.30;;;13.40;99.90;;;;;;4915602;29;20811;-81
2021/10/19 01:56:06;;;;;;;7.63;4.87;;;13.40;99.90;;;;;;4915311;29;20486;-81
2021/10/19 01:58:34;;;;;;;4.57;3.80;;;13.40;99.90;;;;;;4915456;29;20450;-82
2021/10/19 02:01:03;;;;;;;6.80;3.83;;;13.40;99.90;;;;;;4912612;29;20459;-81
2021/10/19 02:03:31;;;;;;;5.60;3.27;;;13.40;99.90;;;;;;4905036;29;20462;-82
2021/10/19 02:05:59;;;;;;;6.13;3.97;;;13.30;99.90;;;;;;4911677;29;20489;-82
2021/10/19 02:08:27;;;;;;;5.73;4.27;;;13.40;99.90;;;;;;4906659;29;20471;-82
2021/10/19 02:10:55;;;;;;;5.87;4.07;;;13.30;99.90;;;;;;4911944;29;21206;-83
2021/10/19 02:13:25;;;;;;;4.63;3.50;;;13.30;99.90;;;;;;4912772;29;20451;-82
2021/10/19 02:15:54;;;;;;;5.20;4.53;;;13.30;99.90;;;;;;4913111;29;20710;-82
2021/10/19 02:18:22;;;;;;;4.20;3.40;;;13.30;99.90;;;;;;4912199;29;20451;-82
2021/10/19 02:20:50;;;;;;;8.10;4.40;;;13.30;99.90;;;;;;4914675;29;20549;-82
2021/10/19 02:23:18;;;;;;;5.90;4.30;;;13.30;99.90;;;;;;4915114;29;20459;-81
2021/10/19 02:25:47;;;;;;;4.37;3.73;;;13.30;99.90;;;;;;4914846;29;21091;-81
2021/10/19 02:28:15;;;;;;;3.60;3.33;;;13.30;99.90;;;;;;4912808;29;20450;-82
2021/10/19 02:30:45;;;;;;;5.80;4.13;;;13.30;99.90;;;;;;4904194;29;20460;-81
2021/10/19 02:33:13;;;;;;;3.70;3.40;;;13.30;99.90;;;;;;4903842;29;20483;-82
2021/10/19 02:35:41;;;;;;;4.80;3.37;;;13.30;99.90;;;;;;4914338;29;20481;-81
2021/10/19 02:38:09;;;;;;;5.20;3.50;;;13.30;99.90;;;;;;4912982;29;20453;-81
2021/10/19 02:40:38;;;;;;;6.23;4.83;;;13.30;99.90;;;;;;4907232;29;20464;-83
2021/10/19 02:43:06;;;;;;;5.40;4.10;;;13.30;99.90;;;;;;4918224;29;20457;-80
2021/10/19 02:45:34;;;;;;;7.27;4.83;;;13.40;99.90;;;;;;4913578;29;20872;-80
2021/10/19 02:48:04;;;;;;;5.27;3.93;;;13.40;99.90;;;;;;4915717;29;20479;-81
2021/10/19 02:50:33;;;;;;;6.13;4.47;;;13.40;99.90;;;;;;4914838;29;20458;-81
2021/10/19 02:53:01;;;;;;;3.53;3.20;;;13.40;99.90;;;;;;4914926;29;20799;-81
2021/10/19 02:55:29;;;;;;;6.10;3.70;;;13.40;99.90;;;;;;4912714;29;20478;-82
2021/10/19 02:57:57;;;;;;;3.33;2.67;;;13.40;99.90;;;;;;4912968;29;20444;-81
2021/10/19 03:00:25;;;;;;;2.93;2.63;;;13.40;99.90;;;;;;4910126;29;20462;-81
2021/10/19 03:02:53;;;;;;;3.63;3.33;;;13.40;99.90;;;;;;4915034;29;20476;-80
2021/10/19 03:05:23;;;;;;;2.97;2.77;;;13.40;99.90;;;;;;4916807;29;20465;-80
2021/10/19 03:07:51;;;;;;;2.90;2.20;;;13.50;99.90;;;;;;4935059;29;20470;-81
2021/10/19 03:10:19;;;;;;;4.67;2.43;;;13.60;99.90;;;;;;4917282;29;20462;-81
2021/10/19 03:12:47;;;;;;;2.87;2.67;;;13.60;99.90;;;;;;4916428;29;20505;-82
2021/10/19 03:15:19;;;;;;;3.03;2.77;;;13.60;99.90;;;;;;4913054;29;20553;-81
2021/10/19 03:17:47;;;;;;;4.67;2.57;;;13.70;99.90;;;;;;4914796;29;20474;-82
2021/10/19 03:20:15;;;;;;;3.63;2.53;;;13.70;99.90;;;;;;4917828;29;20473;-82
2021/10/19 03:22:45;;;;;;;2.70;2.50;;;13.70;99.90;;;;;;4919007;29;20463;-82
2021/10/19 03:25:13;;;;;;;3.50;3.00;;;13.70;99.90;;;;;;4916629;29;20486;-84
2021/10/19 03:27:41;;;;;;;2.53;2.33;;;13.70;99.90;;;;;;4906992;29;20538;-82
2021/10/19 03:30:10;;;;;;;5.00;2.70;;;13.70;99.90;;;;;;4915089;29;20467;-81
2021/10/19 03:32:38;;;;;;;2.20;1.93;;;13.70;99.90;;;;;;4908350;29;20499;-82
2021/10/19 03:35:07;;;;;;;14.07;7.30;;;13.70;99.90;;;;;;4913105;29;20535;-81
2021/10/19 03:37:38;;;;;;;6.97;3.97;;;13.70;99.90;;;;;;4916133;29;20446;-81
2021/10/19 03:40:08;;;;;;;7.13;3.83;;;13.70;99.90;;;;;;4914431;29;20543;-81
2021/10/19 03:42:41;;;;;;;3.80;3.23;;;13.80;99.90;;;;;;4918811;29;20454;-82
2021/10/19 03:45:10;;;;;;;5.83;3.83;;;13.70;99.90;;;;;;4912971;29;20475;-81
2021/10/19 03:47:38;;;;;;;5.50;2.70;;;13.70;99.90;;;;;;4929236;29;20518;-81
2021/10/19 03:50:07;;;;;;;4.90;3.10;;;13.70;99.90;;;;;;4916544;29;20458;-83
2021/10/19 03:52:36;;;;;;;4.83;3.13;;;13.70;99.90;;;;;;4908287;29;20466;-79
2021/10/19 03:55:05;;;;;;;4.20;3.80;;;13.70;99.90;;;;;;4915668;29;20468;-79
2021/10/19 03:57:34;;;;;;;4.73;2.60;;;13.80;99.90;;;;;;4914181;29;20592;-81
2021/10/19 04:00:03;;;;;;;3.20;2.77;;;13.70;99.90;;;;;;4917045;29;20475;-83
2021/10/19 04:02:32;;;;;;;3.63;2.60;;;13.80;99.90;;;;;;4918190;29;20457;-81
2021/10/19 04:05:00;;;;;;;3.57;2.90;;;13.80;99.90;;;;;;4914771;29;20475;-81
2021/10/19 04:07:28;;;;;;;3.60;2.90;;;13.80;99.90;;;;;;4914044;29;20487;-80
2021/10/19 04:09:56;;;;;;;3.07;2.77;;;13.80;99.90;;;;;;4915891;29;20464;-80
2021/10/19 04:12:24;;;;;;;3.80;3.50;;;13.80;99.90;;;;;;4915855;29;20455;-80
2021/10/19 04:14:54;;;;;;;3.60;2.70;;;13.80;99.90;;;;;;4915843;29;20464;-81
2021/10/19 04:17:22;;;;;;;4.50;3.40;;;13.80;99.90;;;;;;4912784;29;21226;-79
2021/10/19 04:19:50;;;;;;;3.63;3.17;;;13.80;99.90;;;;;;4915433;29;20950;-80
2021/10/19 04:22:22;;;;;;;3.90;2.90;;;13.80;99.90;;;;;;4911476;29;20467;-78
2021/10/19 04:24:52;;;;;;;4.20;2.80;;;13.80;99.90;;;;;;4917039;29;20969;-82
2021/10/19 04:27:21;;;;;;;4.73;4.33;;;13.70;99.90;;;;;;4916713;29;20494;-82
2021/10/19 04:29:49;;;;;;;4.10;2.20;;;13.80;99.90;;;;;;4918303;29;20573;-80
2021/10/19 04:32:19;;;;;;;2.70;2.33;;;13.90;99.90;;;;;;4914726;29;20811;-79
2021/10/19 04:34:47;;;;;;;3.30;2.90;;;13.90;99.90;;;;;;4911647;29;20460;-78
2021/10/19 04:37:16;;;;;;;3.17;2.63;;;14.00;99.90;;;;;;4912962;29;20486;-76
2021/10/19 04:39:44;;;;;;;3.23;2.83;;;14.00;99.90;;;;;;4920792;29;20474;-80
2021/10/19 04:42:12;;;;;;;4.47;3.07;;;13.90;99.90;;;;;;4914903;29;20466;-78
2021/10/19 04:44:40;;;;;;;4.07;2.93;;;14.00;99.90;;;;;;4925021;29;20530;-81
2021/10/19 04:47:09;;;;;;;3.87;3.33;;;14.00;99.90;;;;;;4914142;29;20481;-81
2021/10/19 04:49:39;;;;;;;4.47;3.10;;;14.00;99.90;;;;;;4914451;29;20864;-76
2021/10/19 04:52:07;;;;;;;2.60;2.30;;;14.10;99.90;;;;;;4915692;29;20486;-80
2021/10/19 04:54:35;;;;;;;5.97;3.70;;;14.10;99.90;;;;;;4910390;29;20522;-79
2021/10/19 04:57:03;;;;;;;4.13;3.73;;;14.10;99.90;;;;;;4912514;29;20479;-81
2021/10/19 04:59:31;;;;;;;3.93;2.53;;;14.10;99.90;;;;;;4917310;29;21132;-80
2021/10/19 05:02:00;;;;;;;7.60;4.20;;;14.10;99.90;;;;;;4924864;29;20472;-81
2021/10/19 05:04:28;;;;;;;3.67;3.30;;;14.20;99.90;;;;;;4913856;29;20495;-80
2021/10/19 05:06:57;;;;;;;4.97;3.97;;;14.10;99.90;;;;;;4911282;29;20479;-81
2021/10/19 05:09:26;;;;;;;5.53;3.53;;;14.20;99.90;;;;;;4912435;29;20992;-80
2021/10/19 05:11:54;;;;;;;4.50;3.80;;;14.30;99.90;;;;;;4914225;29;20463;-80
2021/10/19 05:14:22;;;;;;;3.90;3.57;;;14.30;99.90;;;;;;4908378;29;20463;-79
2021/10/19 05:16:50;;;;;;;4.53;3.50;;;14.30;99.90;;;;;;4909238;29;20486;-81
2021/10/19 05:19:18;;;;;;;5.20;4.60;;;14.30;99.90;;;;;;4908895;29;20457;-81
2021/10/19 05:21:46;;;;;;;7.17;4.33;;;14.30;99.90;;;;;;4922145;29;20462;-80
2021/10/19 05:24:16;;;;;;;5.07;3.90;;;14.30;99.90;;;;;;4910118;29;20825;-79
2021/10/19 05:26:46;;;;;;;6.93;4.77;;;14.30;99.90;;;;;;4924821;29;21055;-80
2021/10/19 05:29:14;;;;;;;7.07;4.23;;;14.30;99.90;;;;;;4914269;29;20505;-80
2021/10/19 05:31:42;;;;;;;5.93;4.40;;;14.30;99.90;;;;;;4914066;29;20455;-80
2021/10/19 05:34:10;;;;;;;4.10;3.70;;;14.30;99.90;;;;;;4914917;29;20450;-80
2021/10/19 05:36:39;;;;;;;5.10;3.77;;;14.30;99.90;;;;;;4924485;29;21109;-81
2021/10/19 05:39:07;;;;;;;5.00;4.47;;;14.30;99.90;;;;;;4915315;29;20611;-80
2021/10/19 05:41:36;;;;;;;4.27;3.87;;;14.30;1.00;;;;;;4913269;29;20469;-81
2021/10/19 05:44:06;;;;;;;4.80;4.40;;;14.20;1.00;;;;;;4911503;29;20467;-80
2021/10/19 05:46:34;;;;;;;5.60;4.37;;;14.20;99.90;;;;;;4907473;29;20561;-80
2021/10/19 05:49:03;;;;;;;6.20;4.50;;;14.10;99.90;;;;;;4908760;29;20496;-81
2021/10/19 05:51:31;;;;;;;6.70;4.00;;;14.10;99.90;;;;;;4912806;29;20462;-81
2021/10/19 05:53:59;;;;;;;5.13;3.80;;;14.20;99.90;;;;;;4912228;29;20466;-80
2021/10/19 05:56:27;;;;;;;4.30;3.90;;;14.20;99.90;;;;;;4911927;29;20495;-80
2021/10/19 05:58:57;;;;;;;7.20;3.87;;;14.10;99.90;;;;;;4913798;29;20470;-81
2021/10/19 06:01:25;;;;;;;5.07;4.57;;;13.90;99.90;;;;;;4908815;29;20451;-80
2021/10/19 06:03:53;;;;;;;6.00;4.60;;;13.90;99.90;;;;;;4913988;29;20501;-81
2021/10/19 06:06:21;;;;;;;11.60;4.00;;;14.10;99.90;;;;;;4907617;29;21014;-81
2021/10/19 06:08:51;;;;;;;5.03;4.40;;;14.20;99.90;;;;;;4907199;29;20490;-80
2021/10/19 06:11:19;;;;;;;6.27;3.10;;;14.20;99.90;;;;;;4903965;29;20547;-80
2021/10/19 06:13:48;;;;;;;5.30;4.10;;;14.20;99.90;;;;;;4910397;29;20461;-81
2021/10/19 06:16:17;;;;;;;4.73;3.43;;;14.30;99.90;;;;;;4916238;29;20901;-81
2021/10/19 06:18:46;;;;;;;5.80;3.60;;;14.30;99.90;;;;;;4913206;29;20535;-81
2021/10/19 06:21:14;;;;;;;8.07;3.73;;;14.30;99.90;;;;;;4912702;29;20456;-80
2021/10/19 06:23:42;;;;;;;6.33;3.80;;;14.30;99.90;;;;;;4909232;29;20465;-79
2021/10/19 06:26:10;;;;;;;3.70;3.30;;;14.40;99.90;;;;;;4913134;29;20859;-79
2021/10/19 06:28:39;;;;;;;8.10;5.53;;;14.40;1.00;;;;;;4909891;29;20483;-80
2021/10/19 06:31:07;;;;;;;5.87;4.30;;;14.40;99.90;;;;;;4912345;29;20516;-79
2021/10/19 06:33:36;;;;;;;14.87;8.00;;;14.30;99.90;;;;;;4913460;29;20943;-80
2021/10/19 06:36:06;;;;;;;17.80;8.50;;;14.10;99.90;;;;;;4913111;29;20499;-80
2021/10/19 06:38:34;;;;;;;5.30;3.60;;;14.10;99.90;;;;;;4912085;29;20462;-80
2021/10/19 06:41:02;;;;;;;4.10;3.43;;;13.90;99.90;;;;;;4918562;29;20466;-80
2021/10/19 06:43:30;;;;;;;3.70;3.00;;;13.90;99.90;;;;;;4913729;29;20870;-81
2021/10/19 06:45:58;;;;;;;4.43;2.77;;;14.10;99.90;;;;;;4914419;29;20486;-81
2021/10/19 06:48:27;;;;;;;2.17;1.97;;;14.20;99.90;;;;;;4915395;29;20508;-80
2021/10/19 06:50:56;;;;;;;2.80;2.07;;;14.10;99.90;;;;;;4917006;29;20464;-80
2021/10/19 06:53:27;;;;;;;2.70;2.10;;;14.10;99.90;;;;;;4913707;29;20464;-80
2021/10/19 06:55:55;;;;;;;2.37;2.17;;;14.00;99.90;;;;;;4910565;29;20553;-79
2021/10/19 06:58:24;;;;;;;2.30;1.97;;;14.10;99.90;;;;;;4910686;29;20451;-80
2021/10/19 07:00:53;;;;;;;2.70;2.10;;;14.30;99.90;;;;;;4914978;29;20486;-80
2021/10/19 07:03:23;;;;;;;2.87;2.00;;;14.40;99.90;;;;;;4911519;29;20548;-79
2021/10/19 07:05:52;;;;;;;2.97;2.40;;;14.40;99.90;;;;;;4915602;29;21136;-80
2021/10/19 07:08:22;;;;;;;2.83;2.43;;;14.50;99.90;;;;;;4919530;29;20468;-81
2021/10/19 07:10:50;;;;;;;4.17;3.00;;;14.50;99.90;;;;;;4917448;29;20467;-82
2021/10/19 07:13:23;;;;;;;3.30;2.93;;;14.60;99.90;;;;;;4913412;29;20476;-81
2021/10/19 07:15:54;;;;;;;3.93;2.63;;;14.60;99.90;;;;;;4908367;29;20480;-82
2021/10/19 07:18:23;;;;;;;3.53;2.53;;;14.60;99.90;;;;;;4915512;29;20467;-80
2021/10/19 07:20:52;;;;;;;2.90;2.70;;;14.60;99.90;;;;;;4917433;29;20979;-79
2021/10/19 07:23:22;;;;;;;3.03;2.40;;;14.60;99.90;;;;;;4915709;29;20445;-81
2021/10/19 07:25:51;;;;;;;4.40;2.67;;;14.60;1.00;;;;;;4911893;29;20472;-80
2021/10/19 07:28:20;;;;;;;3.93;2.87;;;14.60;99.90;;;;;;4917336;29;20960;-81
2021/10/19 07:30:48;;;;;;;6.30;3.07;;;14.60;99.90;;;;;;4915962;29;20479;-79
2021/10/19 07:33:16;;;;;;;3.73;3.20;;;14.70;99.90;;;;;;4914921;29;20519;-79
2021/10/19 07:35:45;;;;;;;4.07;2.27;;;14.70;99.90;;;;;;4912354;29;20491;-82
2021/10/19 07:38:13;;;;;;;3.80;2.30;;;14.70;99.90;;;;;;4913340;29;21020;-80
2021/10/19 07:40:43;;;;;;;3.60;2.47;;;14.70;99.90;;;;;;4918754;29;20852;-80
2021/10/19 07:43:11;;;;;;;2.67;2.47;;;14.70;99.90;;;;;;4913658;29;20835;-79
2021/10/19 07:45:39;;;;;;;2.37;2.17;;;14.70;99.90;;;;;;4916683;29;20495;-77
2021/10/19 07:48:08;;;;;;;3.47;2.33;;;14.70;1.00;;;;;;4917929;29;20969;-80
2021/10/19 07:50:36;;;;;;;3.90;3.07;;;14.70;99.90;;;;;;4921718;29;20490;-83
2021/10/19 07:53:04;;;;;;;3.40;2.07;;;14.80;99.90;;;;;;4914043;29;20547;-81
2021/10/19 07:55:33;;;;;;;3.20;2.77;;;14.80;99.90;;;;;;4917019;29;20516;-80
2021/10/19 07:58:03;;;;;;;3.83;3.00;;;14.80;99.90;;;;;;4917247;29;20516;-81
2021/10/19 08:00:31;;;;;;;4.03;2.30;;;14.70;99.90;;;;;;4917353;29;20476;-81
2021/10/19 08:03:00;;;;;;;2.67;2.20;;;14.80;99.90;;;;;;4908959;29;20464;-82
2021/10/19 08:05:29;;;;;;;5.00;2.43;;;14.80;99.90;;;;;;4915941;29;20543;-82
2021/10/19 08:08:06;;;;;;;2.60;2.10;;;14.80;1.00;;;;;;4916647;29;20457;-80
2021/10/19 08:10:35;;;;;;;3.93;2.37;;;14.80;99.90;;;;;;4917942;29;20491;-81
2021/10/19 08:13:06;;;;;;;3.13;2.00;;;14.80;99.90;;;;;;4915253;29;20448;-82
2021/10/19 08:15:34;;;;;;;2.03;1.80;;;14.70;99.90;;;;;;4929336;29;20499;-80
2021/10/19 08:18:03;;;;;;;5.20;2.83;;;14.80;99.90;;;;;;4929731;29;20996;-81
2021/10/19 08:20:31;;;;;;;2.90;1.83;;;14.80;99.90;;;;;;4913240;29;20460;-80
2021/10/19 08:23:00;;;;;;;3.30;2.10;;;14.80;99.90;;;;;;4911782;29;20478;-80
2021/10/19 08:25:28;;;;;;;4.03;1.73;;;14.80;99.90;;;;;;4912263;29;20511;-81
2021/10/19 08:27:57;;;;;;;3.03;2.17;;;14.70;99.90;;;;;;4913071;29;20495;-81
2021/10/19 08:30:27;;;;;;;1.63;1.50;;;14.80;99.90;;;;;;4908244;29;20488;-80
2021/10/19 08:32:56;;;;;;;3.57;1.90;;;14.90;99.90;;;;;;4908488;29;20450;-79
2021/10/19 08:35:24;;;;;;;2.57;1.60;;;14.90;99.90;;;;;;4911526;29;20472;-81
2021/10/19 08:37:53;;;;;;;2.40;1.50;;;14.80;99.90;;;;;;4911202;29;20474;-82
2021/10/19 08:40:22;;;;;;;2.73;1.50;;;14.80;99.90;;;;;;4908629;29;20477;-82
2021/10/19 08:42:52;;;;;;;2.63;1.60;;;14.50;99.90;;;;;;4911946;29;20478;-82
2021/10/19 08:45:22;;;;;;;2.10;1.53;;;14.80;99.90;;;;;;4906769;29;20548;-82
2021/10/19 08:47:52;;;;;;;2.13;1.43;;;14.80;99.90;;;;;;4908688;29;20467;-82
2021/10/19 08:50:23;;;;;;;1.60;1.50;;;14.80;99.90;;;;;;4914471;29;20481;-82
2021/10/19 08:52:52;;;;;;;2.90;2.47;;;14.80;99.90;;;;;;4906408;29;20453;-82
2021/10/19 08:55:21;;;;;;;2.40;2.13;;;14.90;99.90;;;;;;4918485;29;20467;-83
2021/10/19 08:57:50;;;;;;;3.50;2.30;;;14.90;99.90;;;;;;4913651;29;20835;-80
2021/10/19 09:00:18;;;;;;;8.60;2.40;;;14.90;99.90;;;;;;4916706;29;20966;-83
2021/10/19 09:02:49;;;;;;;3.33;2.63;;;14.70;99.90;;;;;;4907639;29;20473;-81
2021/10/19 09:05:21;;;;;;;5.33;4.30;;;14.60;99.90;;;;;;4911325;29;20908;-80
2021/10/19 09:07:58;;;;;;;8.20;3.83;;;14.50;99.90;;;;;;4916906;29;20459;-82
2021/10/19 09:10:26;;;;;;;3.33;2.67;;;14.60;99.90;;;;;;4902823;29;20484;-83
2021/10/19 09:12:56;;;;;;;5.60;3.13;;;14.40;99.90;;;;;;4931709;29;20524;-84
2021/10/19 09:15:26;;;;;;;4.20;2.73;;;14.20;99.90;;;;;;4905488;29;20468;-80
2021/10/19 09:18:00;;;;;;;5.90;3.10;;;14.20;99.90;;;;;;4925047;29;20907;-83
2021/10/19 09:20:30;;;;;;;8.60;5.03;;;14.10;99.90;;;;;;4906458;29;20649;-85
2021/10/19 09:23:00;;;;;;;4.37;3.67;;;14.20;99.90;;;;;;4911688;29;20517;-83
2021/10/19 09:25:32;;;;;;;3.90;2.67;;;14.10;99.90;;;;;;4911322;29;20484;-81
2021/10/19 09:28:01;;;;;;;2.13;1.80;;;14.20;99.90;;;;;;4913753;29;20474;-81
2021/10/19 09:30:35;;;;;;;2.60;2.40;;;14.40;99.90;;;;;;4910883;29;20492;-82
2021/10/19 09:33:03;;;;;;;3.10;2.53;;;14.50;99.90;;;;;;4915589;29;20460;-81
2021/10/19 09:35:33;;;;;;;2.00;1.80;;;14.50;99.90;;;;;;4912937;29;20482;-81
2021/10/19 09:38:04;;;;;;;3.23;1.93;;;14.60;99.90;;;;;;4916188;29;20476;-82
2021/10/19 09:40:39;;;;;;;2.17;2.07;;;14.60;99.90;;;;;;4922837;29;20444;-82
2021/10/19 09:43:09;;;;;;;2.00;1.80;;;14.60;99.90;;;;;;4915302;29;20479;-81
2021/10/19 09:45:41;;;;;;;2.23;1.60;;;14.40;1.00;;;;;;4914247;29;20541;-81
2021/10/19 09:48:14;;;;;;;2.07;1.50;;;14.30;1.00;;;;;;4915652;29;20454;-83
2021/10/19 09:50:47;;;;;;;2.00;1.60;;;14.20;64.20;;;;;;4908291;29;20502;-83
2021/10/19 09:53:17;;;;;;;2.27;1.50;;;14.20;99.90;;;;;;4906058;29;20532;-81
2021/10/19 09:55:50;;;;;;;2.60;1.20;;;14.30;99.90;;;;;;4913728;29;20480;-80
2021/10/19 09:58:19;;;;;;;2.97;1.70;;;14.40;1.00;;;;;;4920811;29;20461;-83
2021/10/19 10:00:49;;;;;;;1.83;1.33;;;14.40;1.00;;;;;;4914887;29;20517;-82
2021/10/19 10:03:17;;;;;;;2.97;1.87;;;14.40;1.00;;;;;;4913333;29;21050;-81
2021/10/19 10:05:47;;;;;;;1.60;1.40;;;14.50;1.00;;;;;;4909185;29;20509;-83
2021/10/19 10:08:19;;;;;;;1.70;1.60;;;14.70;1.00;;;;;;4912994;29;20459;-82
2021/10/19 10:10:52;;;;;;;4.17;1.47;;;14.50;99.90;;;;;;4914768;29;20487;-82
2021/10/19 10:13:21;;;;;;;1.60;1.50;;;14.30;1.00;;;;;;4915872;29;20455;-82
2021/10/19 10:15:50;;;;;;;2.53;1.60;;;14.20;22.30;;;;;;4913436;29;20898;-83
2021/10/19 10:18:31;;;;;;;1.27;1.17;;;14.20;99.90;;;;;;4915248;29;20466;-84
2021/10/19 10:21:12;;;;;;;11.20;4.67;;;14.40;1.00;;;;;;4914620;29;20464;-82
2021/10/19 10:23:42;;;;;;;2.63;2.20;;;14.40;1.00;;;;;;4912210;29;20458;-82
2021/10/19 10:26:22;;;;;;;1.63;1.40;;;14.50;1.00;;;;;;4909506;29;20857;-82
2021/10/19 10:28:51;;;;;;;2.70;1.43;;;14.50;99.90;;;;;;4909911;29;20459;-81
2021/10/19 10:31:21;;;;;;;2.53;1.77;;;14.40;1.00;;;;;;4914101;29;20987;-83
2021/10/19 10:34:01;;;;;;;1.20;1.10;;;14.60;1.00;;;;;;4914552;29;20456;-81
2021/10/19 10:36:39;;;;;;;1.67;1.40;;;14.70;27.70;;;;;;4912156;29;20495;-81
2021/10/19 10:39:08;;;;;;;2.07;1.40;;;14.70;99.90;;;;;;4898167;29;20450;-82
2021/10/19 10:41:41;;;;;;;2.50;1.30;;;14.60;27.90;;;;;;4925134;29;20511;-82
2021/10/19 10:44:11;;;;;;;2.27;1.20;;;14.70;99.90;;;;;;4915796;29;20472;-80
2021/10/19 10:46:40;;;;;;;7.40;1.50;;;14.80;1.00;;;;;;4911581;29;20500;-81
2021/10/19 10:49:12;;;;;;;1.80;1.70;;;14.90;1.00;;;;;;4914116;29;20982;-81
2021/10/19 10:51:44;;;;;;;4.37;1.60;;;14.80;31.50;;;;;;4914285;29;20987;-82
2021/10/19 10:54:18;;;;;;;3.93;1.33;;;14.60;99.90;;;;;;4913910;29;20470;-81
2021/10/19 10:56:49;;;;;;;1.57;1.30;;;14.60;99.90;;;;;;4910956;29;20494;-83
2021/10/19 10:59:25;;;;;;;1.90;1.70;;;14.60;99.90;;;;;;4907789;29;20469;-83
2021/10/19 11:01:55;;;;;;;2.10;1.27;;;14.60;99.90;;;;;;4911155;29;20462;-84
2021/10/19 11:04:23;;;;;;;2.00;1.40;;;14.80;57.20;;;;;;4906486;29;20571;-84
2021/10/19 11:06:53;;;;;;;1.80;1.43;;;14.90;1.00;;;;;;4911367;29;20856;-83
2021/10/19 11:09:23;;;;;;;2.40;1.40;;;15.00;99.90;;;;;;4920846;29;20468;-83
2021/10/19 11:11:52;;;;;;;1.93;1.37;;;15.00;99.90;;;;;;4911068;29;21030;-83
2021/10/19 11:14:24;;;;;;;1.43;1.30;;;15.10;1.00;;;;;;4905099;29;20479;-83
2021/10/19 11:16:55;;;;;;;1.67;1.57;;;15.30;1.00;;;;;;4913662;29;20502;-83
2021/10/19 11:19:27;;;;;;;1.73;1.30;;;15.30;1.00;;;;;;4913997;29;20492;-83
2021/10/19 11:21:59;;;;;;;2.70;1.20;;;15.40;1.00;;;;;;4911035;29;20456;-81
2021/10/19 11:24:29;;;;;;;1.50;1.40;;;15.40;1.00;;;;;;4909661;29;20461;-83
2021/10/19 11:27:00;;;;;;;2.10;1.37;;;15.30;1.00;;;;;;4906156;29;20475;-81
2021/10/19 11:29:30;;;;;;;1.00;1.00;;;15.30;1.00;;;;;;4919803;29;20464;-82
2021/10/19 11:32:01;;;;;;;1.40;1.30;;;15.30;99.90;;;;;;4918143;29;20479;-82
2021/10/19 11:34:29;;;;;;;1.63;1.53;;;15.10;99.90;;;;;;4923971;29;20458;-82
2021/10/19 11:36:58;;;;;;;3.03;1.50;;;15.10;99.90;;;;;;4916013;29;20880;-82
2021/10/19 11:39:29;;;;;;;1.67;1.30;;;15.30;99.90;;;;;;4914432;29;20468;-83
2021/10/19 11:42:00;;;;;;;2.33;1.50;;;15.30;99.90;;;;;;4915927;29;21194;-80
2021/10/19 11:44:33;;;;;;;1.30;1.07;;;15.30;99.90;;;;;;4909524;29;20456;-82
2021/10/19 11:47:02;;;;;;;1.80;1.40;;;15.30;99.90;;;;;;4911290;29;20490;-79
2021/10/19 11:49:33;;;;;;;2.20;1.20;;;15.50;99.90;;;;;;4914077;29;20505;-82
2021/10/19 11:52:03;;;;;;;1.30;1.20;;;15.50;99.90;;;;;;4917526;29;20520;-80
2021/10/19 11:54:32;;;;;;;1.60;1.50;;;15.50;99.90;;;;;;4916688;29;20876;-80
2021/10/19 11:57:02;;;;;;;3.67;1.20;;;15.60;99.90;;;;;;4919489;29;20492;-82
2021/10/19 11:59:40;;;;;;;1.47;1.10;;;15.60;99.90;;;;;;4918843;29;20468;-81
2021/10/19 12:02:09;;;;;;;2.10;1.60;;;15.50;99.90;;;;;;4916890;29;20468;-82
2021/10/19 12:04:40;;;;;;;2.97;1.40;;;15.40;99.90;;;;;;4911111;29;20454;-81
2021/10/19 12:07:12;;;;;;;3.03;1.83;;;15.40;99.90;;;;;;4909535;29;20469;-82
2021/10/19 12:09:41;;;;;;;1.97;1.40;;;15.60;99.90;;;;;;4908774;29;20466;-81
2021/10/19 12:12:11;;;;;;;1.67;1.57;;;15.60;99.90;;;;;;4917143;29;20495;-82
2021/10/19 12:14:42;;;;;;;2.57;1.40;;;15.70;99.90;;;;;;4916867;29;20468;-82
2021/10/19 12:17:14;;;;;;;1.70;1.60;;;15.60;99.90;;;;;;4914203;29;20473;-81
2021/10/19 12:20:03;;;;;;;3.10;1.60;;;15.60;99.90;;;;;;4926288;29;20465;-80
2021/10/19 12:22:37;;;;;;;1.40;1.30;;;15.60;99.90;;;;;;4920036;29;20453;-81
2021/10/19 12:25:09;;;;;;;2.43;2.00;;;15.50;99.90;;;;;;4918253;29;20464;-81
2021/10/19 12:27:38;;;;;;;3.07;1.77;;;15.60;1.00;;;;;;4924571;29;20817;-80
2021/10/19 12:30:13;;;;;;;2.30;2.20;;;15.50;1.00;;;;;;4906415;29;20513;-79
2021/10/19 12:32:42;;;;;;;2.07;1.80;;;15.50;1.00;;;;;;4912487;29;20485;-82
2021/10/19 12:35:11;;;;;;;2.03;1.50;;;15.50;99.90;;;;;;4917267;29;20480;-79
2021/10/19 12:37:42;;;;;;;1.70;1.50;;;15.50;1.00;;;;;;4912993;29;20469;-82
2021/10/19 12:40:19;;;;;;;4.03;1.80;;;15.60;1.00;;;;;;4911959;29;20473;-80
2021/10/19 12:42:47;;;;;;;2.60;2.10;;;15.70;99.90;;;;;;4906072;29;20473;-81
2021/10/19 12:45:15;;;;;;;2.67;2.10;;;15.70;99.90;;;;;;4908688;29;21242;-81
2021/10/19 12:47:44;;;;;;;3.67;2.10;;;15.60;99.90;;;;;;4916939;29;20993;-81
2021/10/19 12:50:12;;;;;;;2.50;2.00;;;15.60;99.90;;;;;;4919697;29;20469;-82
2021/10/19 12:52:41;;;;;;;4.07;1.90;;;15.60;99.90;;;;;;4910131;29;20609;-82
2021/10/19 12:55:10;;;;;;;3.37;2.20;;;15.70;99.90;;;;;;4905841;29;20537;-82
2021/10/19 12:57:38;;;;;;;2.27;1.80;;;15.90;1.00;;;;;;4910315;29;20461;-82
2021/10/19 13:00:08;;;;;;;2.03;1.83;;;16.10;99.90;;;;;;4917823;29;20467;-81